createdAt,value
2019-02-09T00:02:33.313Z,4.07
2019-02-09T00:05:04.532Z,4.00
2019-02-09T00:07:33.157Z,4.10
2019-02-09T00:10:05.176Z,3.80
2019-02-09T00:12:39.319Z,4.00
2019-02-09T00:15:24.014Z,4.20
2019-02-09T00:17:55.139Z,3.87
2019-02-09T00:20:24.171Z,3.00
2019-02-09T00:22:52.554Z,2.90
2019-02-09T00:25:26.995Z,3.40
2019-02-09T00:28:05.073Z,4.20
2019-02-09T00:30:33.505Z,3.23
2019-02-09T00:33:05.661Z,3.13
2019-02-09T00:35:35.053Z,3.10
2019-02-09T00:38:03.482Z,2.73
2019-02-09T00:40:32.186Z,2.80
2019-02-09T00:43:01.976Z,3.00
2019-02-09T00:45:32.190Z,2.60
2019-02-09T00:48:02.312Z,3.30
2019-02-09T00:50:30.593Z,3.40
2019-02-09T00:52:58.888Z,4.60
2019-02-09T00:55:31.912Z,2.50
2019-02-09T00:58:00.132Z,2.50
2019-02-09T01:00:32.997Z,2.47
2019-02-09T01:03:03.615Z,2.47
2019-02-09T01:05:48.867Z,2.57
2019-02-09T01:08:17.053Z,1.93
2019-02-09T01:10:53.569Z,2.10
2019-02-09T01:13:24.843Z,2.20
2019-02-09T01:15:53.023Z,1.50
2019-02-09T01:18:21.397Z,2.83
2019-02-09T01:20:52.931Z,2.20
2019-02-09T01:23:21.062Z,2.00
2019-02-09T01:25:50.152Z,1.87
2019-02-09T01:28:24.265Z,1.40
2019-02-09T01:30:55.042Z,1.97
2019-02-09T01:33:29.380Z,1.47
2019-02-09T01:35:57.619Z,2.70
2019-02-09T01:38:29.358Z,1.37
2019-02-09T01:40:57.467Z,1.40
2019-02-09T01:43:25.842Z,1.60
2019-02-09T01:45:58.307Z,1.73
2019-02-09T01:48:26.491Z,1.73
2019-02-09T01:50:57.169Z,1.40
2019-02-09T01:53:27.877Z,1.53
2019-02-09T01:55:56.152Z,1.57
2019-02-09T01:58:26.451Z,1.83
2019-02-09T02:01:00.694Z,1.60
2019-02-09T02:03:31.277Z,1.80
2019-02-09T02:06:02.100Z,1.83
2019-02-09T02:08:30.439Z,1.90
2019-02-09T02:10:58.711Z,2.17
2019-02-09T02:13:29.798Z,2.20
2019-02-09T02:16:00.900Z,2.40
2019-02-09T02:18:33.415Z,3.00
2019-02-09T02:21:03.335Z,3.37
2019-02-09T02:23:32.420Z,2.63
2019-02-09T02:26:04.508Z,4.57
2019-02-09T02:28:32.627Z,2.73
2019-02-09T02:31:02.331Z,2.70
2019-02-09T02:33:30.430Z,2.30
2019-02-09T02:35:58.814Z,3.00
2019-02-09T02:38:32.845Z,3.30
2019-02-09T02:41:03.522Z,3.40
2019-02-09T02:43:34.006Z,2.50
2019-02-09T02:46:05.711Z,2.27
2019-02-09T02:48:33.846Z,2.97
2019-02-09T02:51:02.829Z,2.10
2019-02-09T02:53:33.679Z,2.57
2019-02-09T02:56:01.900Z,2.63
2019-02-09T02:58:33.468Z,3.27
2019-02-09T03:01:02.611Z,3.70
2019-02-09T03:03:30.941Z,2.60
2019-02-09T03:06:03.341Z,3.00
2019-02-09T03:08:33.721Z,4.10
2019-02-09T03:11:04.018Z,3.80
2019-02-09T03:13:32.275Z,2.40
2019-02-09T03:16:00.655Z,2.73
2019-02-09T03:18:33.233Z,4.20
2019-02-09T03:21:01.387Z,2.70
2019-02-09T03:23:29.751Z,3.93
2019-02-09T03:25:58.420Z,2.60
2019-02-09T03:28:28.242Z,2.53
2019-02-09T03:30:56.554Z,2.67
2019-02-09T03:33:24.885Z,2.70
2019-02-09T03:35:52.965Z,3.43
2019-02-09T03:38:21.232Z,2.60
2019-02-09T03:40:52.353Z,2.90
2019-02-09T03:43:20.322Z,2.80
2019-02-09T03:45:50.747Z,2.80
2019-02-09T03:48:19.002Z,3.70
2019-02-09T03:50:48.634Z,2.47
2019-02-09T03:53:18.948Z,3.47
2019-02-09T03:55:47.036Z,3.00
2019-02-09T03:58:27.440Z,3.70
2019-02-09T04:00:58.068Z,2.97
2019-02-09T04:03:29.428Z,2.00
2019-02-09T04:05:59.289Z,3.50
2019-02-09T04:08:27.552Z,1.97
2019-02-09T04:11:00.871Z,3.23
2019-02-09T04:13:29.128Z,2.30
2019-02-09T04:16:01.531Z,2.30
2019-02-09T04:18:34.664Z,3.23
2019-02-09T04:21:03.224Z,2.50
2019-02-09T04:23:31.409Z,2.70
2019-02-09T04:25:59.668Z,2.33
2019-02-09T04:28:28.679Z,2.13
2019-02-09T04:31:06.800Z,3.30
2019-02-09T04:33:37.600Z,2.00
2019-02-09T04:36:10.895Z,2.20
2019-02-09T04:38:39.501Z,2.00
2019-02-09T04:41:09.408Z,2.30
2019-02-09T04:43:38.879Z,2.30
2019-02-09T04:46:12.907Z,2.10
2019-02-09T04:48:46.908Z,2.27
2019-02-09T04:51:19.548Z,2.23
2019-02-09T04:53:52.538Z,2.50
2019-02-09T04:56:31.521Z,3.43
2019-02-09T04:59:00.764Z,3.13
2019-02-09T05:01:29.579Z,5.30
2019-02-09T05:03:58.556Z,2.97
2019-02-09T05:06:28.982Z,2.97
2019-02-09T05:08:58.287Z,3.17
2019-02-09T05:11:28.957Z,3.17
2019-02-09T05:14:00.273Z,2.63
2019-02-09T05:16:34.377Z,2.80
2019-02-09T05:19:06.067Z,2.90
2019-02-09T05:21:38.295Z,2.83
2019-02-09T05:24:08.612Z,3.03
2019-02-09T05:26:40.563Z,3.10
2019-02-09T05:29:12.473Z,2.83
2019-02-09T05:31:47.777Z,2.93
2019-02-09T05:34:16.547Z,3.00
2019-02-09T05:36:45.115Z,3.10
2019-02-09T05:39:16.474Z,2.90
2019-02-09T05:41:53.140Z,4.07
2019-02-09T05:44:22.819Z,3.23
2019-02-09T05:46:54.379Z,3.53
2019-02-09T05:49:23.762Z,2.50
2019-02-09T05:51:58.781Z,2.80
2019-02-09T05:54:27.203Z,3.10
2019-02-09T05:56:55.282Z,3.07
2019-02-09T05:59:23.356Z,2.27
2019-02-09T06:01:57.793Z,2.20
2019-02-09T06:04:28.900Z,2.47
2019-02-09T06:06:56.888Z,2.97
2019-02-09T06:09:27.154Z,3.00
2019-02-09T06:11:55.391Z,2.40
2019-02-09T06:14:23.516Z,2.33
2019-02-09T06:16:54.370Z,2.63
2019-02-09T06:19:22.432Z,3.33
2019-02-09T06:21:54.764Z,2.23
2019-02-09T06:24:22.727Z,3.10
2019-02-09T06:26:52.824Z,2.40
2019-02-09T06:29:27.197Z,4.23
2019-02-09T06:31:55.239Z,3.30
2019-02-09T06:34:23.244Z,3.30
2019-02-09T06:36:51.462Z,3.40
2019-02-09T06:39:19.730Z,2.57
2019-02-09T06:41:50.253Z,3.50
2019-02-09T06:44:18.352Z,3.63
2019-02-09T06:46:46.603Z,3.93
2019-02-09T06:49:14.677Z,3.50
2019-02-09T06:51:42.785Z,3.60
2019-02-09T06:54:10.772Z,3.23
2019-02-09T06:56:43.509Z,3.50
2019-02-09T06:59:13.061Z,3.90
2019-02-09T07:01:48.554Z,4.63
2019-02-09T07:04:13.470Z,4.43
2019-02-09T07:06:41.724Z,5.70
2019-02-09T07:09:09.880Z,4.30
2019-02-09T07:11:38.014Z,3.63
2019-02-09T07:14:06.637Z,3.80
2019-02-09T07:16:34.837Z,5.07
2019-02-09T07:19:05.305Z,4.80
2019-02-09T07:21:35.048Z,3.37
2019-02-09T07:24:03.240Z,3.63
2019-02-09T07:26:33.587Z,4.17
2019-02-09T07:29:01.830Z,4.20
2019-02-09T07:31:29.946Z,3.50
2019-02-09T07:33:58.010Z,3.87
2019-02-09T07:36:26.117Z,4.20
2019-02-09T07:38:55.723Z,4.43
2019-02-09T07:41:26.755Z,4.33
2019-02-09T07:43:56.252Z,4.50
2019-02-09T07:46:24.631Z,5.23
2019-02-09T07:48:52.493Z,4.77
2019-02-09T07:51:20.613Z,4.50
2019-02-09T07:53:48.542Z,4.20
2019-02-09T07:56:16.429Z,4.87
2019-02-09T07:58:47.456Z,3.80
2019-02-09T08:01:15.368Z,4.23
2019-02-09T08:03:43.987Z,4.47
2019-02-09T08:06:12.375Z,4.20
2019-02-09T08:08:48.159Z,4.17
2019-02-09T08:11:17.543Z,4.40
2019-02-09T08:13:45.642Z,3.67
2019-02-09T08:16:13.827Z,3.70
2019-02-09T08:18:41.947Z,3.83
2019-02-09T08:21:09.806Z,3.60
2019-02-09T08:23:38.794Z,3.07
2019-02-09T08:26:07.183Z,3.77
2019-02-09T08:28:35.087Z,3.00
2019-02-09T08:31:03.049Z,3.77
2019-02-09T08:33:31.049Z,3.10
2019-02-09T08:35:58.910Z,3.77
2019-02-09T08:38:27.056Z,5.00
2019-02-09T08:40:55.170Z,4.07
2019-02-09T08:43:23.361Z,4.13
2019-02-09T08:45:51.308Z,4.40
2019-02-09T08:48:19.280Z,4.10
2019-02-09T08:50:57.594Z,6.13
2019-02-09T08:53:25.458Z,3.77
2019-02-09T08:55:53.410Z,4.37
2019-02-09T08:58:22.573Z,4.50
2019-02-09T09:00:50.441Z,3.80
2019-02-09T09:03:18.321Z,3.70
2019-02-09T09:05:46.465Z,3.83
2019-02-09T09:08:14.374Z,4.63
2019-02-09T09:10:42.272Z,3.70
2019-02-09T13:07:01.718Z,3.90
2019-02-09T13:09:32.697Z,3.77
2019-02-09T13:12:00.545Z,3.70
2019-02-09T13:14:28.630Z,4.17
2019-02-09T13:16:56.799Z,4.97
2019-02-09T13:19:24.634Z,3.80
2019-02-09T13:21:53.361Z,3.90
2019-02-09T13:24:21.268Z,2.53
2019-02-09T13:26:49.113Z,4.73
2019-02-09T13:29:17.530Z,4.30
2019-02-09T13:31:45.492Z,3.03
2019-02-09T13:34:13.490Z,4.87
2019-02-09T13:36:42.873Z,2.83
2019-02-09T13:39:10.769Z,3.80
2019-02-09T13:44:13.631Z,2.80
2019-02-09T13:46:41.598Z,3.47
2019-02-09T13:49:09.413Z,3.23
2019-02-09T13:51:37.981Z,3.00
2019-02-09T13:54:05.839Z,3.53
2019-02-09T13:56:33.852Z,3.10
2019-02-09T13:59:01.912Z,3.50
2019-02-09T14:01:30.167Z,3.60
2019-02-09T14:03:58.207Z,3.43
2019-02-09T14:06:26.421Z,4.23
2019-02-09T14:08:54.688Z,3.17
2019-02-09T14:11:23.030Z,2.83
2019-02-09T14:13:50.976Z,4.93
2019-02-09T14:16:22.300Z,3.10
2019-02-09T14:18:50.359Z,3.33
2019-02-09T14:21:18.259Z,3.37
2019-02-09T14:23:48.751Z,3.80
2019-02-09T14:26:16.581Z,3.47
2019-02-09T14:28:44.451Z,3.47
2019-02-09T14:31:12.445Z,4.30
2019-02-09T14:33:40.347Z,2.77
2019-02-09T14:36:08.308Z,2.80
2019-02-09T14:38:36.370Z,3.10
2019-02-09T14:41:04.534Z,4.00
2019-02-09T14:43:32.500Z,3.70
2019-02-09T14:46:02.245Z,3.83
2019-02-09T14:48:30.164Z,4.00
2019-02-09T14:50:58.230Z,3.03
2019-02-09T14:53:26.172Z,3.40
2019-02-09T14:55:54.155Z,3.77
2019-02-09T14:58:22.403Z,4.30
2019-02-09T15:00:52.205Z,3.70
2019-02-09T15:03:25.908Z,3.00
2019-02-09T15:05:49.810Z,3.60
2019-02-09T15:08:17.833Z,3.40
2019-02-09T15:10:45.898Z,3.20
2019-02-09T15:13:14.591Z,4.43
2019-02-09T15:16:42.289Z,4.10
2019-02-09T15:19:10.158Z,3.70
2019-02-09T15:21:38.059Z,4.97
2019-02-09T15:24:06.105Z,4.90
2019-02-09T15:26:33.918Z,3.47
2019-02-09T15:29:01.912Z,3.60
2019-02-09T15:31:29.757Z,4.03
2019-02-09T15:33:57.692Z,4.20
2019-02-09T15:36:25.705Z,3.50
2019-02-09T15:38:53.566Z,4.03
2019-02-09T15:41:21.465Z,3.90
2019-02-09T15:43:49.788Z,5.07
2019-02-09T15:46:17.632Z,4.07
2019-02-09T15:48:45.539Z,3.43
2019-02-09T15:51:13.595Z,4.57
2019-02-09T15:53:41.607Z,3.93
2019-02-09T15:56:09.485Z,3.93
2019-02-09T15:58:37.419Z,3.70
2019-02-09T16:01:07.328Z,5.40
2019-02-09T16:03:35.206Z,4.57
2019-02-09T16:06:03.182Z,4.40
2019-02-09T16:08:31.069Z,3.80
2019-02-09T16:11:10.157Z,4.17
2019-02-09T16:13:45.336Z,4.77
2019-02-09T16:16:08.580Z,4.10
2019-02-09T16:18:36.530Z,4.03
2019-02-09T16:21:04.406Z,4.27
2019-02-09T16:23:32.385Z,4.57
2019-02-09T16:26:00.397Z,3.80
2019-02-09T16:28:28.312Z,4.50
2019-02-09T16:30:57.508Z,3.37
2019-02-09T16:33:25.688Z,3.70
2019-02-09T16:35:53.877Z,4.07
2019-02-09T16:38:21.701Z,3.10
2019-02-09T16:40:49.707Z,4.23
2019-02-09T16:43:17.784Z,3.30
2019-02-09T16:45:45.657Z,3.40
2019-02-09T16:48:13.491Z,3.40
2019-02-09T16:50:41.464Z,3.13
2019-02-09T16:53:09.298Z,3.13
2019-02-09T16:55:41.983Z,3.97
2019-02-09T16:58:10.004Z,3.80
2019-02-09T17:00:39.810Z,3.63
2019-02-09T17:03:09.062Z,3.43
2019-02-09T17:05:37.105Z,3.60
2019-02-09T17:08:05.468Z,4.23
2019-02-09T17:10:33.395Z,3.37
2019-02-09T17:13:01.589Z,4.03
2019-02-09T17:15:35.459Z,3.57
2019-02-09T17:18:04.583Z,3.90
2019-02-09T17:20:32.547Z,4.60
2019-02-09T17:23:02.903Z,3.83
2019-02-09T17:25:30.886Z,3.50
2019-02-09T17:27:58.964Z,3.43
2019-02-09T17:30:31.721Z,4.33
2019-02-09T17:32:59.840Z,3.43
2019-02-09T17:35:27.709Z,4.03
2019-02-09T17:37:55.545Z,3.83
2019-02-09T17:40:27.097Z,4.20
2019-02-09T17:42:55.015Z,3.60
2019-02-09T17:45:33.908Z,3.80
2019-02-09T17:48:01.874Z,3.80
2019-02-09T17:50:29.811Z,3.67
2019-02-09T17:52:57.757Z,3.47
2019-02-09T17:55:25.610Z,3.00
2019-02-09T17:57:53.593Z,4.87
2019-02-09T18:00:35.133Z,3.63
2019-02-09T18:03:03.015Z,3.50
2019-02-09T18:05:31.002Z,4.67
2019-02-09T18:07:58.895Z,4.37
2019-02-09T18:10:26.907Z,4.53
2019-02-09T18:13:01.448Z,3.60
2019-02-09T18:15:29.469Z,3.67
2019-02-09T18:17:57.553Z,3.77
2019-02-09T18:20:25.433Z,3.60
2019-02-09T18:22:53.246Z,4.00
2019-02-09T18:25:24.940Z,3.63
2019-02-09T18:27:52.817Z,4.27
2019-02-09T18:30:21.654Z,3.77
2019-02-09T18:32:49.703Z,4.10
2019-02-09T18:35:17.879Z,3.93
2019-02-09T18:37:45.785Z,4.00
2019-02-09T18:40:17.394Z,3.90
2019-02-09T18:42:45.333Z,4.00
2019-02-09T18:45:16.995Z,4.40
2019-02-09T18:47:46.853Z,4.90
2019-02-09T18:50:16.820Z,4.77
2019-02-09T18:52:45.345Z,4.50
2019-02-09T18:55:17.910Z,5.63
2019-02-09T18:57:45.875Z,3.90
2019-02-09T19:00:19.649Z,4.37
2019-02-09T19:02:47.878Z,4.20
2019-02-09T19:05:17.842Z,3.90
2019-02-09T19:07:45.899Z,3.70
2019-02-09T19:10:20.193Z,4.10
2019-02-09T19:12:50.999Z,3.73
2019-02-09T19:15:19.529Z,4.60
2019-02-09T19:17:50.831Z,3.90
2019-02-09T19:20:23.010Z,4.07
2019-02-09T19:22:51.121Z,2.90
2019-02-09T19:25:19.869Z,4.23
2019-02-09T19:27:47.721Z,3.90
2019-02-09T19:30:19.060Z,4.20
2019-02-09T19:32:50.731Z,4.80
2019-02-09T19:35:18.789Z,3.67
2019-02-09T19:37:48.818Z,3.83
2019-02-09T19:40:20.411Z,4.07
2019-02-09T19:42:48.764Z,4.13
2019-02-09T19:45:21.519Z,3.70
2019-02-09T19:47:49.708Z,4.40
2019-02-09T19:50:17.791Z,4.17
2019-02-09T19:52:47.282Z,4.50
2019-02-09T19:55:18.480Z,4.27
2019-02-09T19:57:49.291Z,4.37
2019-02-09T20:00:32.130Z,4.10
2019-02-09T20:03:00.162Z,3.70
2019-02-09T20:05:29.097Z,4.50
2019-02-09T20:07:57.284Z,4.00
2019-02-09T20:10:31.709Z,3.23
2019-02-09T20:12:59.800Z,3.40
2019-02-09T20:15:30.766Z,4.50
2019-02-09T20:18:04.100Z,3.70
2019-02-09T20:20:32.346Z,3.20
2019-02-09T20:23:00.450Z,3.03
2019-02-09T20:25:29.136Z,3.23
2019-02-09T20:27:57.540Z,3.27
2019-02-09T20:30:31.892Z,4.83
2019-02-09T20:33:00.247Z,3.27
2019-02-09T20:35:28.681Z,4.27
2019-02-09T20:37:57.050Z,3.33
2019-02-09T20:40:37.611Z,4.70
2019-02-09T20:43:07.585Z,2.90
2019-02-09T20:45:38.043Z,3.87
2019-02-09T20:48:06.966Z,3.93
2019-02-09T20:50:35.042Z,4.13
2019-02-09T20:53:03.227Z,3.57
2019-02-09T20:55:31.408Z,3.40
2019-02-09T20:59:04.317Z,3.90
2019-02-09T21:01:32.403Z,4.13
2019-02-09T21:04:00.353Z,4.57
2019-02-09T21:06:28.578Z,3.60
2019-02-09T21:08:56.538Z,3.90
2019-02-09T21:11:24.497Z,3.33
2019-02-09T21:13:54.038Z,4.10
2019-02-09T21:16:23.741Z,4.87
2019-02-09T21:18:51.723Z,4.00
2019-02-09T21:21:19.688Z,4.10
2019-02-09T21:23:47.645Z,4.30
2019-02-09T21:26:16.102Z,3.70
2019-02-09T21:28:46.510Z,4.00
2019-02-09T21:31:14.515Z,4.10
2019-02-09T21:33:47.194Z,4.30
2019-02-09T21:36:15.313Z,3.70
2019-02-09T21:38:43.195Z,4.07
2019-02-09T21:41:11.259Z,4.30
2019-02-09T21:43:39.308Z,4.33
2019-02-09T21:46:09.774Z,4.40
2019-02-09T21:48:37.882Z,4.03
2019-02-09T21:51:07.139Z,4.80
2019-02-09T21:53:35.044Z,3.33
2019-02-09T21:56:07.002Z,4.40
2019-02-09T21:58:35.266Z,5.17
2019-02-09T22:01:09.375Z,4.47
2019-02-09T22:03:42.525Z,3.73
2019-02-09T22:06:24.869Z,4.40
2019-02-09T22:08:52.984Z,3.80
2019-02-09T22:11:21.049Z,4.10
2019-02-09T22:13:49.082Z,3.90
2019-02-09T22:16:17.195Z,3.80
2019-02-09T22:18:45.271Z,3.47
2019-02-09T22:21:13.443Z,3.83
2019-02-09T22:23:41.616Z,3.47
2019-02-09T22:26:13.234Z,3.77
2019-02-09T22:28:39.606Z,3.23
2019-02-09T22:31:07.790Z,3.47
2019-02-09T22:33:36.042Z,3.00
2019-02-09T22:36:05.931Z,4.10
2019-02-09T22:38:34.111Z,4.17
2019-02-09T22:41:02.148Z,4.20
2019-02-09T22:43:30.164Z,3.50
2019-02-09T22:45:58.268Z,3.17
2019-02-09T22:48:26.219Z,3.90
2019-02-09T22:50:54.594Z,3.20
2019-02-09T22:53:22.650Z,3.90
2019-02-09T22:55:50.871Z,3.50
2019-02-09T22:58:18.910Z,3.97
2019-02-09T23:01:08.336Z,3.40
2019-02-09T23:03:55.235Z,4.30
2019-02-09T23:06:52.342Z,3.50
2019-02-09T23:09:19.666Z,3.37
2019-02-09T23:11:48.886Z,4.63
2019-02-09T23:14:17.125Z,3.43
2019-02-09T23:16:45.127Z,3.50
2019-02-09T23:19:13.217Z,3.67
2019-02-09T23:21:41.396Z,3.47
2019-02-09T23:24:09.444Z,3.13
2019-02-09T23:26:37.483Z,3.90
2019-02-09T23:29:05.502Z,3.30
2019-02-09T23:31:43.632Z,4.43
2019-02-09T23:34:11.598Z,3.23
2019-02-09T23:36:39.698Z,3.90
2019-02-09T23:39:11.610Z,3.80
2019-02-09T23:41:39.651Z,3.00
2019-02-09T23:44:07.649Z,3.90
2019-02-09T23:46:38.489Z,3.20
2019-02-09T23:49:06.583Z,3.90
2019-02-09T23:51:34.675Z,3.80
2019-02-09T23:54:02.810Z,4.13
2019-02-09T23:56:33.825Z,4.50
2019-02-09T23:59:01.885Z,3.80
